CW3783 Weather Reports


Display with metric or nautical units.
time (UTC)temp
F
wind
direction
speed
MPH
gust
MPH
rain 1hr
in
rain 24hr
in
rain mn
in
humidity
%
barometer
mb
20200715030304 78 178 0.0 0.0 0.00 0.00 0.00 66 1016.3
20200715025804 78 178 0.0 0.0 0.00 0.00 0.00 66 1016.4
20200715025304 78 178 0.0 0.0 0.00 0.00 0.00 66 1016.5
20200715024805 78 176 0.0 0.0 0.00 0.00 0.00 66 1016.5
20200715024303 78 176 0.0 0.0 0.00 0.00 0.00 66 1016.5
20200715023805 78 176 0.0 0.0 0.00 0.00 0.00 66 1016.6
20200715023303 78 176 0.0 0.0 0.00 0.00 0.00 65 1016.6
20200715022804 78 176 0.0 0.0 0.00 0.00 0.00 65 1016.6
20200715022304 78 177 0.0 0.0 0.00 0.00 0.00 64 1016.6
20200715021803 78 177 0.0 0.0 0.00 0.00 0.00 65 1016.5
20200715021304 78 176 0.0 0.0 0.00 0.00 0.00 64 1016.5
20200715020804 78 176 0.0 0.0 0.00 0.00 0.00 64 1016.4
20200715020304 79 178 0.0 0.0 0.00 0.00 0.00 64 1016.3
20200715015803 79 180 0.0 0.0 0.00 0.00 0.00 64 1016.3
20200715015303 79 179 0.0 0.0 0.00 0.00 0.00 63 1016.2
20200715014803 79 181 0.0 0.0 0.00 0.00 0.00 63 1016.2
20200715014304 79 180 0.0 0.0 0.00 0.00 0.00 62 1016.1
20200715013803 80 180 0.0 0.0 0.00 0.00 0.00 62 1016.0
20200715013304 80 183 0.0 0.0 0.00 0.00 0.00 62 1016.1
20200715012803 80 182 0.0 0.0 0.00 0.00 0.00 62 1016.0
20200715012305 80 182 0.0 0.0 0.00 0.00 0.00 62 1015.9
20200715011806 80 182 0.0 0.0 0.00 0.00 0.00 62 1015.9
20200715011305 81 182 0.0 0.0 0.00 0.00 0.00 62 1015.9
20200715010804 81 180 1.0 1.0 0.00 0.00 0.00 62 1015.8
20200715010305 81 179 1.0 2.0 0.00 0.00 0.00 62 1015.7
20200715005803 81 179 1.0 5.0 0.00 0.00 0.00 61 1015.7
20200715005303 81 184 0.0 0.0 0.00 0.00 0.00 60 1015.8
20200715004804 81 182 0.0 0.0 0.00 0.00 0.00 60 1015.8
20200715004304 82 219 0.0 0.0 0.00 0.00 0.00 60 1015.8
20200715003804 82 204 0.0 0.0 0.00 0.00 0.00 59 1015.7
20200715003304 82 181 0.0 1.0 0.00 0.00 0.00 58 1015.6
20200715002805 82 177 1.0 2.0 0.00 0.00 0.00 58 1015.5
20200715002305 82 170 1.0 5.0 0.00 0.00 0.00 58 1015.4
20200715001832 82 169 3.0 6.0 0.00 0.00 0.00 57 1015.3
20200715001310 82 177 3.0 6.0 0.00 0.00 0.00 56 1015.4
20200715000806 83 185 5.0 6.0 0.00 0.00 0.00 56 1015.4
20200715000304 83 178 4.0 6.0 0.00 0.00 0.00 56 1015.4
20200714235806 83 173 2.0 5.0 0.00 0.00 0.00 56 1015.3
20200714235304 83 181 3.0 5.0 0.00 0.00 0.00 55 1015.3
20200714234804 83 194 3.0 5.0 0.00 0.00 0.00 55 1015.2
20200714234304 84 193 6.0 8.0 0.00 0.00 0.00 54 1015.2
20200714233804 84 181 2.0 6.0 0.00 0.00 0.00 54 1015.1
20200714233304 84 154 1.0 5.0 0.00 0.00 0.00 54 1015.1
20200714232805 84 143 2.0 5.0 0.00 0.00 0.00 54 1014.9
20200714232304 84 198 1.0 3.0 0.00 0.00 0.00 52 1014.9
20200714231804 84 201 2.0 5.0 0.00 0.00 0.00 53 1014.8
20200714231306 84 205 3.0 6.0 0.00 0.00 0.00 53 1014.7
20200714230804 84 201 3.0 7.0 0.00 0.00 0.00 54 1014.6
20200714230304 84 199 1.0 6.0 0.00 0.00 0.00 53 1014.6
20200714225804 84 180 3.0 6.0 0.00 0.00 0.00 53 1014.6
20200714225304 85 186 4.0 8.0 0.00 0.00 0.00 52 1014.5
20200714224804 85 153 5.0 8.0 0.00 0.00 0.00 52 1014.5
20200714224304 85 88 3.0 7.0 0.00 0.00 0.00 52 1014.4
20200714223804 85 156 4.0 7.0 0.00 0.00 0.00 52 1014.3
20200714223305 85 156 3.0 7.0 0.00 0.00 0.00 51 1014.3
20200714222804 85 125 5.0 8.0 0.00 0.00 0.00 52 1014.2
20200714222304 85 165 4.0 8.0 0.00 0.00 0.00 51 1014.2
20200714221804 86 91 5.0 7.0 0.00 0.00 0.00 50 1014.2
20200714221304 86 110 7.0 10.0 0.00 0.00 0.00 50 1014.2
20200714220804 87 353 7.0 13.0 0.00 0.00 0.00 49 1014.1
20200714220303 88 66 5.0 12.0 0.00 0.00 0.00 48 1014.2
20200714215804 88 35 7.0 9.0 0.00 0.00 0.00 47 1014.1
20200714215304 89 175 5.0 8.0 0.00 0.00 0.00 46 1014.2
20200714214805 89 24 1.0 5.0 0.00 0.00 0.00 38 1014.1
20200714214304 89 347 1.0 5.0 0.00 0.00 0.00 39 1014.1
20200714213804 89 352 3.0 7.0 0.00 0.00 0.00 41 1014.1
20200714213304 89 347 3.0 8.0 0.00 0.00 0.00 40 1014.1
20200714212804 89 326 1.0 5.0 0.00 0.00 0.00 40 1013.9
20200714212305 88 333 4.0 6.0 0.00 0.00 0.00 40 1013.8
20200714211804 89 222 3.0 6.0 0.00 0.00 0.00 40 1013.8
20200714211303 89 34 4.0 7.0 0.00 0.00 0.00 41 1013.8
20200714210807 88 317 5.0 10.0 0.00 0.00 0.00 43 1013.8
20200714210304 88 292 4.0 6.0 0.00 0.00 0.00 41 1013.7
20200714205803 88 212 2.0 8.0 0.00 0.00 0.00 41 1013.7
20200714205304 89 294 3.0 5.0 0.00 0.00 0.00 40 1013.6
20200714204805 89 6 6.0 8.0 0.00 0.00 0.00 41 1013.7
20200714204306 89 24 3.0 8.0 0.00 0.00 0.00 42 1013.7
20200714203804 88 325 2.0 7.0 0.00 0.00 0.00 43 1013.7
20200714203305 88 358 10.0 13.0 0.00 0.00 0.00 43 1013.6
20200714202806 88 243 6.0 12.0 0.00 0.00 0.00 41 1013.6
20200714202307 89 223 2.0 6.0 0.00 0.00 0.00 40 1013.7
20200714201804 89 325 3.0 9.0 0.00 0.00 0.00 41 1013.7
20200714201304 89 28 5.0 7.0 0.00 0.00 0.00 42 1013.7
20200714200803 89 296 1.0 3.0 0.00 0.00 0.00 43 1013.7
20200714200305 89 58 3.0 6.0 0.00 0.00 0.00 41 1013.7
20200714195804 89 3 4.0 7.0 0.00 0.00 0.00 43 1013.6
20200714195304 89 66 3.0 7.0 0.00 0.00 0.00 44 1013.6
20200714194809 88 337 2.0 6.0 0.00 0.00 0.00 44 1013.4
20200714194304 88 273 2.0 5.0 0.00 0.00 0.00 43 1013.5
20200714193804 88 310 4.0 10.0 0.00 0.00 0.00 44 1013.6
20200714193304 88 322 2.0 9.0 0.00 0.00 0.00 43 1013.5
20200714192803 88 179 4.0 8.0 0.00 0.00 0.00 40 1013.5
20200714192307 89 339 5.0 10.0 0.00 0.00 0.00 42 1013.6
20200714191803 89 330 4.0 8.0 0.00 0.00 0.00 42 1013.7
20200714191304 89 315 5.0 8.0 0.00 0.00 0.00 42 1013.7
20200714190806 89 332 5.0 8.0 0.00 0.00 0.00 42 1013.7
20200714190304 89 308 5.0 12.0 0.00 0.00 0.00 43 1013.8
20200714185804 88 311 6.0 9.0 0.00 0.00 0.00 42 1013.9
20200714185304 88 319 5.0 7.0 0.00 0.00 0.00 45 1013.9
20200714184805 88 257 2.0 10.0 0.00 0.00 0.00 44 1014.0
20200714184304 88 300 7.0 14.0 0.00 0.00 0.00 45 1014.0
20200714183807 88 321 6.0 13.0 0.00 0.00 0.00 46 1014.0
20200714183305 87 296 5.0 16.0 0.00 0.00 0.00 47 1014.0
20200714182804 87 311 7.0 13.0 0.00 0.00 0.00 45 1014.0
20200714182304 86 301 5.0 13.0 0.00 0.00 0.00 45 1014.0
20200714181803 86 324 5.0 9.0 0.00 0.00 0.00 48 1014.2
20200714181304 86 6 4.0 6.0 0.00 0.00 0.00 49 1014.1
20200714180803 87 335 2.0 9.0 0.00 0.00 0.00 49 1014.0
20200714180304 86 358 2.0 7.0 0.00 0.00 0.00 48 1014.0
20200714175804 86 353 7.0 14.0 0.00 0.00 0.00 45 1014.2
20200714175304 86 25 5.0 10.0 0.00 0.00 0.00 46 1014.2
20200714174804 86 17 8.0 13.0 0.00 0.00 0.00 45 1014.3
20200714174304 86 337 8.0 14.0 0.00 0.00 0.00 44 1014.3
20200714173804 86 341 5.0 15.0 0.00 0.00 0.00 47 1014.4
20200714173304 87 359 7.0 15.0 0.00 0.00 0.00 46 1014.3
20200714172805 86 328 7.0 13.0 0.00 0.00 0.00 47 1014.4
20200714172305 86 316 5.0 12.0 0.00 0.00 0.00 48 1014.4
20200714171804 85 333 7.0 10.0 0.00 0.00 0.00 49 1014.4
20200714171304 85 6 7.0 10.0 0.00 0.00 0.00 46 1014.3
20200714170804 85 6 6.0 15.0 0.00 0.00 0.00 47 1014.2
20200714170304 85 18 8.0 13.0 0.00 0.00 0.00 46 1014.2
20200714165804 85 321 5.0 7.0 0.00 0.00 0.00 46 1014.1
20200714165304 85 12 9.0 13.0 0.00 0.00 0.00 44 1014.1
20200714164805 86 359 7.0 12.0 0.00 0.00 0.00 46 1014.1
20200714164305 86 322 6.0 12.0 0.00 0.00 0.00 48 1014.1
20200714163804 85 300 6.0 10.0 0.00 0.00 0.00 48 1014.1
20200714163304 85 320 6.0 9.0 0.00 0.00 0.00 46 1014.1
20200714162804 86 309 6.0 10.0 0.00 0.00 0.00 46 1014.1
20200714162304 85 315 7.0 13.0 0.00 0.00 0.00 46 1014.2
20200714161805 85 315 6.0 14.0 0.00 0.00 0.00 48 1014.2
20200714161305 85 355 9.0 14.0 0.00 0.00 0.00 47 1014.2
20200714160804 85 337 8.0 14.0 0.00 0.00 0.00 48 1014.2
20200714160306 85 327 9.0 13.0 0.00 0.00 0.00 47 1014.2
20200714155807 85 326 7.0 13.0 0.00 0.00 0.00 50 1014.2
20200714155304 85 331 6.0 10.0 0.00 0.00 0.00 52 1014.2
20200714154804 84 308 6.0 12.0 0.00 0.00 0.00 53 1014.2
20200714154304 84 333 6.0 10.0 0.00 0.00 0.00 53 1014.1
20200714153804 83 29 3.0 12.0 0.00 0.00 0.00 53 1014.2
20200714153304 84 21 8.0 13.0 0.00 0.00 0.00 50 1014.2
20200714152804 84 348 3.0 8.0 0.00 0.00 0.00 52 1014.2
20200714152304 84 13 7.0 13.0 0.00 0.00 0.00 49 1014.2
20200714151804 84 1 7.0 14.0 0.00 0.00 0.00 51 1014.2
20200714151304 84 332 2.0 6.0 0.00 0.00 0.00 50 1014.2
20200714150806 84 356 7.0 13.0 0.00 0.00 0.00 48 1014.3
20200714150304 84 317 5.0 13.0 0.00 0.00 0.00 51 1014.2
20200714145804 84 314 5.0 10.0 0.00 0.00 0.00 52 1014.1
20200714145304 84 333 6.0 9.0 0.00 0.00 0.00 51 1014.1
20200714144804 84 349 6.0 13.0 0.00 0.00 0.00 50 1014.1
20200714144305 84 332 5.0 12.0 0.00 0.00 0.00 54 1014.1
20200714143806 83 318 6.0 12.0 0.00 0.00 0.00 53 1014.1
20200714143303 83 0 6.0 10.0 0.00 0.00 0.00 52 1014.2
20200714142804 83 323 6.0 13.0 0.00 0.00 0.00 54 1014.2
20200714142304 83 344 8.0 13.0 0.00 0.00 0.00 53 1014.2
20200714141806 83 313 6.0 10.0 0.00 0.00 0.00 53 1014.2
20200714141304 83 327 6.0 8.0 0.00 0.00 0.00 52 1014.3
20200714140804 83 312 5.0 8.0 0.00 0.00 0.00 52 1014.2
20200714140304 83 15 3.0 6.0 0.00 0.00 0.00 51 1014.3
20200714135804 83 30 2.0 8.0 0.00 0.00 0.00 54 1014.2
20200714135304 83 8 3.0 6.0 0.00 0.00 0.00 55 1014.2
20200714134804 82 11 4.0 7.0 0.00 0.00 0.00 54 1014.3
20200714134307 82 36 2.0 5.0 0.00 0.00 0.00 55 1014.4
20200714133805 82 34 1.0 3.0 0.00 0.00 0.00 54 1014.5
20200714133304 82 2 2.0 5.0 0.00 0.00 0.00 55 1014.4
20200714132804 82 325 1.0 5.0 0.00 0.00 0.00 56 1014.4
20200714132304 81 344 2.0 6.0 0.00 0.00 0.00 55 1014.4
20200714131805 81 305 2.0 5.0 0.00 0.00 0.00 58 1014.4
20200714131304 81 323 2.0 5.0 0.00 0.00 0.00 58 1014.4
20200714130809 81 344 1.0 5.0 0.00 0.00 0.00 58 1014.5
20200714130310 80 34 0.0 5.0 0.00 0.00 0.00 59 1014.4
20200714125811 80 52 2.0 5.0 0.00 0.00 0.00 59 1014.3
20200714125307 79 77 1.0 5.0 0.00 0.00 0.00 59 1014.3
20200714124804 79 70 2.0 3.0 0.00 0.00 0.00 59 1014.2
20200714124306 79 48 2.0 5.0 0.00 0.00 0.00 60 1014.2
20200714123804 79 4 2.0 5.0 0.00 0.00 0.00 62 1014.2
20200714123304 78 330 2.0 10.0 0.00 0.00 0.00 62 1014.2
20200714122807 78 328 4.0 7.0 0.00 0.00 0.00 61 1014.2
20200714122304 77 33 1.0 5.0 0.00 0.00 0.00 62 1014.2
20200714121803 77 26 4.0 6.0 0.00 0.00 0.00 62 1014.1
20200714121304 77 37 3.0 5.0 0.00 0.00 0.00 64 1014.0
20200714120804 76 21 3.0 5.0 0.00 0.00 0.00 64 1014.0
20200714120305 76 40 3.0 6.0 0.00 0.00 0.00 64 1013.9
20200714115804 76 28 4.0 8.0 0.00 0.00 0.00 63 1013.9
20200714115304 75 30 5.0 9.0 0.00 0.00 0.00 64 1013.9
20200714114803 75 14 6.0 9.0 0.00 0.00 0.00 64 1013.9
20200714114316 75 22 4.0 7.0 0.00 0.00 0.00 66 1013.8
20200714113821 74 34 3.0 7.0 0.00 0.00 0.00 66 1013.7
20200714113304 74 3 2.0 5.0 0.00 0.00 0.00 67 1013.8
20200714112804 74 332 3.0 6.0 0.00 0.00 0.00 67 1013.8
20200714112304 73 47 3.0 7.0 0.00 0.00 0.00 67 1013.7
20200714111808 73 37 4.0 6.0 0.00 0.00 0.00 68 1013.7
20200714111304 72 348 1.0 5.0 0.00 0.00 0.00 69 1013.6
20200714110804 72 38 3.0 6.0 0.00 0.00 0.00 70 1013.6
20200714110304 72 49 3.0 7.0 0.00 0.00 0.00 71 1013.5
20200714105805 71 11 3.0 5.0 0.00 0.00 0.00 71 1013.4
20200714105303 71 21 3.0 5.0 0.00 0.00 0.00 72 1013.3
20200714104804 71 38 1.0 3.0 0.00 0.00 0.00 73 1013.3
20200714104304 70 37 2.0 5.0 0.00 0.00 0.00 73 1013.2
20200714103804 70 0 2.0 5.0 0.00 0.00 0.00 73 1013.2
20200714103304 70 35 3.0 5.0 0.00 0.00 0.00 73 1013.2
20200714102804 70 342 2.0 3.0 0.00 0.00 0.00 73 1013.1
20200714102303 70 342 0.0 3.0 0.00 0.00 0.00 73 1013.1
20200714101803 70 342 0.0 0.0 0.00 0.00 0.00 73 1013.0
20200714101304 70 342 0.0 0.0 0.00 0.00 0.00 73 1012.9
20200714100804 70 342 2.0 5.0 0.00 0.00 0.00 73 1012.9
20200714100304 70 344 3.0 5.0 0.00 0.00 0.00 73 1012.8
20200714095805 70 349 3.0 5.0 0.00 0.00 0.00 73 1012.8
20200714095304 70 343 3.0 6.0 0.00 0.00 0.00 72 1012.7
20200714094804 70 346 2.0 3.0 0.00 0.00 0.00 73 1012.7
20200714094304 70 346 2.0 3.0 0.00 0.00 0.00 73 1012.7
20200714093804 70 346 3.0 5.0 0.00 0.00 0.00 73 1012.5
20200714093304 70 31 4.0 6.0 0.00 0.00 0.00 73 1012.5
20200714092804 70 355 2.0 5.0 0.00 0.00 0.00 74 1012.4
20200714092303 70 335 3.0 5.0 0.00 0.00 0.00 74 1012.4
20200714091804 70 334 3.0 5.0 0.00 0.00 0.00 75 1012.4
20200714091303 71 333 2.0 5.0 0.00 0.00 0.00 75 1012.3
20200714090804 71 333 3.0 5.0 0.00 0.00 0.00 75 1012.2
20200714090305 71 333 1.0 2.0 0.00 0.00 0.00 76 1012.2
20200714085804 71 333 1.0 3.0 0.00 0.00 0.00 76 1012.1
20200714085304 71 333 1.0 3.0 0.00 0.00 0.00 76 1012.1
20200714084803 71 333 1.0 2.0 0.00 0.00 0.00 76 1012.1
20200714084305 71 333 1.0 5.0 0.00 0.00 0.00 76 1012.1
20200714083805 71 285 1.0 3.0 0.00 0.00 0.00 77 1012.1
20200714083304 71 285 1.0 3.0 0.00 0.00 0.00 78 1012.1
20200714082803 71 286 2.0 3.0 0.00 0.00 0.00 78 1011.9
20200714082304 71 285 2.0 3.0 0.00 0.00 0.00 79 1011.9
20200714081805 72 284 1.0 3.0 0.00 0.00 0.00 79 1011.9
20200714081305 72 284 0.0 0.0 0.00 0.00 0.00 79 1011.8
20200714080804 72 284 0.0 0.0 0.00 0.00 0.00 80 1011.8
20200714080304 72 284 0.0 0.0 0.00 0.00 0.00 80 1011.7
20200714075803 72 284 0.0 0.0 0.00 0.00 0.00 80 1011.8
20200714075304 72 284 0.0 0.0 0.00 0.00 0.00 80 1011.7
20200714074804 72 284 0.0 0.0 0.00 0.00 0.00 81 1011.7
20200714074303 73 284 0.0 0.0 0.00 0.00 0.00 81 1011.6
20200714073804 73 284 0.0 0.0 0.00 0.00 0.00 81 1011.6
20200714073305 73 284 0.0 2.0 0.00 0.00 0.00 81 1011.7
20200714072804 73 284 1.0 3.0 0.00 0.00 0.00 81 1011.6
20200714072304 73 284 0.0 2.0 0.00 0.00 0.00 81 1011.6
20200714071805 73 285 0.0 0.0 0.00 0.00 0.00 81 1011.6
20200714071303 73 285 0.0 0.0 0.00 0.00 0.00 80 1011.5
20200714070804 73 284 0.0 0.0 0.00 0.00 0.00 80 1011.5
20200714070304 73 284 0.0 0.0 0.00 0.00 0.00 81 1011.4
20200714065805 74 286 0.0 0.0 0.00 0.00 0.00 82 1011.4
20200714065305 74 286 0.0 0.0 0.00 0.00 0.00 82 1011.4
20200714064805 74 286 0.0 1.0 0.00 0.00 0.00 82 1011.4
20200714064304 74 286 0.0 1.0 0.00 0.00 0.00 82 1011.4
20200714063804 74 286 0.0 0.0 0.00 0.00 0.00 81 1011.4
20200714063303 74 286 0.0 0.0 0.00 0.00 0.00 81 1011.4
20200714062803 74 286 0.0 2.0 0.00 0.00 0.00 82 1011.3
20200714062304 74 286 1.0 2.0 0.00 0.00 0.00 82 1011.4
20200714061804 74 286 1.0 3.0 0.00 0.00 0.00 82 1011.4
20200714061304 74 286 2.0 3.0 0.00 0.00 0.00 82 1011.4
20200714060804 74 286 2.0 3.0 0.00 0.00 0.00 82 1011.4
20200714060304 74 287 1.0 3.0 0.00 0.00 0.00 82 1011.4
20200714055804 74 287 3.0 5.0 0.00 0.00 0.00 81 1011.5
20200714055304 74 287 1.0 3.0 0.00 0.00 0.00 81 1011.5
20200714054804 74 287 0.0 1.0 0.00 0.00 0.00 81 1011.5
20200714054304 74 287 0.0 0.0 0.00 0.00 0.00 81 1011.5
20200714053804 74 287 0.0 2.0 0.00 0.00 0.00 81 1011.5
20200714053304 74 287 2.0 3.0 0.00 0.00 0.00 81 1011.5
20200714052804 74 287 0.0 1.0 0.00 0.00 0.00 81 1011.5
20200714052304 74 287 1.0 3.0 0.00 0.00 0.00 81 1011.5
20200714051804 74 287 2.0 5.0 0.00 0.00 0.00 81 1011.4
20200714051304 75 287 2.0 3.0 0.00 0.00 0.00 80 1011.4
20200714050804 75 287 1.0 3.0 0.00 0.00 0.00 80 1011.4
20200714050308 75 290 1.0 2.0 0.00 0.00 0.00 80 1011.4
20200714045804 75 286 0.0 0.0 0.00 0.00 0.00 80 1011.4
20200714045304 75 285 1.0 5.0 0.00 0.00 0.00 80 1011.4
20200714044804 76 284 3.0 5.0 0.00 0.00 0.00 79 1011.4
20200714044304 76 278 1.0 5.0 0.00 0.00 0.00 78 1011.3
20200714043804 76 274 0.0 0.0 0.00 0.00 0.00 77 1011.3
20200714043304 76 268 0.0 0.0 0.00 0.00 0.00 77 1011.3
20200714042804 76 270 0.0 0.0 0.00 0.00 0.00 76 1011.2
20200714042305 76 269 0.0 0.0 0.00 0.00 0.00 76 1011.1
20200714041804 76 269 0.0 0.0 0.00 0.00 0.00 76 1011.1
20200714041304 76 274 0.0 1.0 0.00 0.00 0.00 76 1011.1
20200714040816 76 275 0.0 1.0 0.00 0.00 0.00 76 1011.1
20200714040304 76 272 1.0 2.0 0.00 0.00 0.00 76 1011.1
20200714035805 76 270 1.0 5.0 0.00 0.00 0.00 77 1011.2
20200714035308 76 269 1.0 3.0 0.00 0.00 0.00 76 1011.2
20200714034804 77 271 2.0 3.0 0.00 0.00 0.00 75 1011.2
20200714034304 77 337 0.0 0.0 0.00 0.00 0.00 72 1011.2
20200714033804 77 338 0.0 0.0 0.00 0.00 0.00 72 1011.2
20200714033304 77 338 0.0 0.0 0.00 0.00 0.00 71 1011.2
20200714032803 77 345 0.0 0.0 0.00 0.00 0.00 71 1011.2
20200714032304 77 346 0.0 0.0 0.00 0.00 0.00 71 1011.2
20200714031804 77 346 0.0 0.0 0.00 0.00 0.00 71 1011.2
20200714031304 77 346 0.0 0.0 0.00 0.00 0.00 72 1011.1
20200714030804 77 346 0.0 0.0 0.00 0.00 0.00 72 1011.1